Terminal Aerodrome Forecast
Issued by NWS

Home | Current Version | Previous Version | Text Only | Print | Product List | Glossary On
Versions: 1 2 3 4 5 6 7 8 9 10 11 12 13 14 15
413
FTUS43 KICT 221720
TAFHUT
TAF
KHUT 221720Z 2218/2318 21012KT P6SM SKC
     FM230100 14010KT P6SM SCT250
     FM230300 07010KT P6SM SCT050 BKN120
     FM230400 07010KT P6SM SCT040 SCT150
     FM231000 06007KT P6SM BKN200=

USA.gov is the U.S. government's official web portal to all federal, state and local government web resources and services.